Time;durP1;ratioP1;P1;durP2;ratioP2;P2;SDS_P1;SDS_P2;PMS_P1;PMS_P2;Temp;Humidity;BMP_temperature;BMP_pressure;BME280_temperature;BME280_humidity;BME280_pressure;Samples;Min_cycle;Max_cycle;Signal;HPM_P1;HPM_P2
2022/04/15 00:00:41;;;;;;;;;9.00;9.00;;;;;17.67;50.92;101765.38;5053655;28;45933;-50
2022/04/15 00:03:07;;;;;;;;;5.50;5.50;;;;;17.72;50.95;101782.19;5069567;28;45433;-54
2022/04/15 00:05:45;;;;;;;;;7.20;7.00;;;;;17.39;50.99;101729.91;5055478;28;45373;-53
2022/04/15 00:08:11;;;;;;;;;9.00;7.80;;;;;17.68;50.95;101780.97;5072144;28;45379;-52
2022/04/15 00:10:39;;;;;;;;;8.00;7.00;;;;;17.69;51.15;101773.47;5057627;28;45460;-52
2022/04/15 00:13:06;;;;;;;;;1.00;1.00;;;;;17.79;50.91;101775.69;5072873;28;45953;-50
2022/04/15 00:15:32;;;;;;;;;4.80;4.80;;;;;17.70;50.71;101769.59;5057678;28;45347;-53
2022/04/15 00:17:58;;;;;;;;;8.60;6.20;;;;;17.66;50.94;101776.72;5057687;28;45299;-53
2022/04/15 00:20:26;;;;;;;;;8.00;5.75;;;;;17.57;51.31;101774.25;5039770;28;46693;-54
2022/04/15 00:22:52;;;;;;;;;6.00;5.00;;;;;17.52;51.04;101771.38;5057687;28;45219;-51
2022/04/15 00:25:18;;;;;;;;;8.80;7.00;;;;;17.51;51.43;101772.44;5072828;28;45472;-53
2022/04/15 00:27:44;;;;;;;;;9.25;7.00;;;;;17.58;51.54;101775.13;5057526;28;45337;-51
2022/04/15 00:30:10;;;;;;;;;7.00;6.50;;;;;17.25;51.19;101727.31;5057427;28;45345;-55
2022/04/15 00:32:36;;;;;;;;;8.20;6.80;;;;;17.57;51.08;101782.59;5057437;28;45908;-53
2022/04/15 00:35:02;;;;;;;;;8.00;6.00;;;;;17.63;51.32;101775.28;5057741;28;45569;-54
2022/04/15 00:37:28;;;;;;;;;5.20;5.20;;;;;17.42;50.95;101757.19;5057407;28;45689;-54
2022/04/15 00:39:53;;;;;;;;;6.50;6.50;;;;;17.51;51.47;101775.22;5072827;28;46171;-51
2022/04/15 00:42:22;;;;;;;;;6.00;5.50;;;;;17.53;51.38;101778.59;5057100;28;45544;-52
2022/04/15 00:44:48;;;;;;;;;6.20;6.20;;;;;17.30;51.35;101762.69;5057192;28;45533;-54
2022/04/15 00:47:38;;;;;;;;;6.20;6.20;;;;;17.45;51.90;101773.38;5050881;28;45674;-51
2022/04/15 00:50:04;;;;;;;;;7.40;5.60;;;;;17.43;51.74;101773.59;5054180;28;46286;-54
2022/04/15 00:52:33;;;;;;;;;5.00;5.00;;;;;17.36;51.44;101769.22;5055908;28;45238;-54
2022/04/15 00:54:59;;;;;;;;;5.00;5.00;;;;;17.28;51.58;101760.13;5072513;28;45406;-56
2022/04/15 00:57:25;;;;;;;;;5.00;4.00;;;;;17.41;51.86;101772.13;5039364;28;45354;-53
2022/04/15 00:59:51;;;;;;;;;7.20;7.20;;;;;17.36;51.58;101763.66;5038701;28;45607;-51
2022/04/15 01:02:17;;;;;;;;;6.40;5.00;;;;;17.46;51.84;101775.06;5057199;28;45259;-54
2022/04/15 01:04:43;;;;;;;;;6.50;5.75;;;;;17.46;51.53;101786.16;5038640;28;45315;-58
2022/04/15 01:07:09;;;;;;;;;9.00;7.75;;;;;17.18;51.70;101735.69;5072846;28;45390;-49
2022/04/15 01:09:34;;;;;;;;;7.50;5.75;;;;;17.24;52.06;101750.56;5038654;28;46378;-56
2022/04/15 01:12:01;;;;;;;;;10.50;8.50;;;;;17.51;51.97;101783.56;5038959;28;45300;-55
2022/04/15 01:14:27;;;;;;;;;7.60;7.00;;;;;17.28;51.46;101745.44;5055490;28;45742;-51
2022/04/15 01:16:52;;;;;;;;;6.75;6.25;;;;;17.27;51.76;101755.66;5038311;28;45937;-56
2022/04/15 01:19:19;;;;;;;;;6.00;6.00;;;;;17.46;51.71;101775.91;5056516;28;45776;-55
2022/04/15 01:21:44;;;;;;;;;8.00;6.00;;;;;17.45;51.65;101773.38;5056476;28;45395;-51
2022/04/15 01:24:10;;;;;;;;;7.00;5.25;;;;;17.46;51.70;101778.66;5071946;28;45347;-54
2022/04/15 01:26:38;;;;;;;;;7.25;7.25;;;;;17.37;51.90;101788.41;5057249;28;45464;-56
2022/04/15 01:29:04;;;;;;;;;10.80;8.40;;;;;17.34;51.78;101784.16;5056281;28;45417;-54
2022/04/15 01:31:31;;;;;;;;;6.50;5.50;;;;;17.32;51.80;101789.09;5055990;28;45427;-54
2022/04/15 01:33:59;;;;;;;;;7.00;6.80;;;;;17.27;51.84;101774.22;5056495;28;45354;-52
2022/04/15 01:36:24;;;;;;;;;8.80;7.00;;;;;17.39;52.04;101786.25;5056608;28;45458;-49
2022/04/15 01:38:50;;;;;;;;;8.75;8.00;;;;;17.16;51.79;101748.09;5056094;28;45441;-54
2022/04/15 01:41:15;;;;;;;;;6.75;5.75;;;;;17.31;52.00;101778.25;5055278;28;45339;-54
2022/04/15 01:43:41;;;;;;;;;7.50;7.50;;;;;17.33;52.02;101784.38;5056467;28;45361;-55
2022/04/15 01:46:06;;;;;;;;;7.75;7.00;;;;;17.25;52.09;101774.47;5056288;28;45478;-56
2022/04/15 01:48:32;;;;;;;;;7.00;5.25;;;;;17.19;52.46;101787.31;5055928;28;45338;-50
2022/04/15 01:50:57;;;;;;;;;8.00;8.00;;;;;17.00;51.98;101742.09;5038399;28;45675;-56
2022/04/15 01:53:23;;;;;;;;;6.00;6.00;;;;;16.93;51.95;101750.47;5038557;28;45326;-55
2022/04/15 01:55:48;;;;;;;;;6.25;5.00;;;;;17.04;52.14;101756.38;5053577;28;45244;-54
2022/04/15 01:58:14;;;;;;;;;6.75;6.00;;;;;17.23;52.03;101779.38;5056224;28;46774;-55
2022/04/15 02:00:39;;;;;;;;;7.50;7.50;;;;;17.20;52.13;101783.47;5055781;28;45314;-54
2022/04/15 02:03:05;;;;;;;;;5.75;4.25;;;;;16.93;51.95;101739.38;5056459;28;45743;-50
2022/04/15 02:05:33;;;;;;;;;6.00;6.00;;;;;17.17;51.88;101783.94;5071748;28;45663;-53
2022/04/15 02:07:59;;;;;;;;;6.20;6.20;;;;;16.82;52.21;101737.38;5055871;28;45448;-53
2022/04/15 02:10:24;;;;;;;;;7.00;6.25;;;;;17.05;52.54;101775.56;5056108;28;45347;-50
2022/04/15 02:12:50;;;;;;;;;6.00;5.25;;;;;16.84;52.67;101739.91;5056033;28;45333;-51
2022/04/15 02:15:15;;;;;;;;;6.00;6.00;;;;;17.04;52.49;101782.16;5056305;28;45817;-51
2022/04/15 02:17:41;;;;;;;;;7.00;7.00;;;;;16.97;52.61;101786.88;5054571;28;45467;-50
2022/04/15 02:20:07;;;;;;;;;5.50;5.50;;;;;17.04;52.63;101778.53;5054660;28;45363;-54
2022/04/15 02:22:33;;;;;;;;;8.00;8.00;;;;;16.98;52.37;101773.88;5056363;28;45786;-49
2022/04/15 02:24:58;;;;;;;;;5.50;5.50;;;;;16.94;52.62;101776.28;5071520;28;45326;-51
2022/04/15 02:27:24;;;;;;;;;6.00;6.00;;;;;16.89;52.11;101760.34;5055693;28;45610;-49
2022/04/15 02:29:49;;;;;;;;;4.00;3.25;;;;;17.09;52.53;101784.25;5036821;28;45359;-51
2022/04/15 02:32:15;;;;;;;;;8.25;7.00;;;;;16.89;52.40;101743.69;5071480;28;45405;-56
2022/04/15 02:34:40;;;;;;;;;7.75;5.50;;;;;16.84;52.39;101728.81;5037812;28;45252;-53
2022/04/15 02:37:06;;;;;;;;;8.50;7.25;;;;;17.19;52.19;101784.56;5037531;28;47582;-51
2022/04/15 02:39:32;;;;;;;;;9.50;8.00;;;;;17.14;52.26;101776.06;5055887;28;45490;-54
2022/04/15 02:41:58;;;;;;;;;9.20;9.00;;;;;17.19;52.53;101780.94;5055447;28;45395;-49
2022/04/15 02:44:24;;;;;;;;;6.75;6.75;;;;;17.16;52.34;101773.06;5038163;28;45382;-51
2022/04/15 02:46:49;;;;;;;;;9.50;8.00;;;;;17.15;52.57;101783.34;5037637;28;45577;-50
2022/04/15 02:49:15;;;;;;;;;10.25;7.50;;;;;16.97;52.53;101747.25;5055500;28;45461;-49
2022/04/15 02:51:40;;;;;;;;;9.50;8.50;;;;;17.15;52.51;101788.88;5054405;28;45357;-54
2022/04/15 02:54:06;;;;;;;;;6.25;6.25;;;;;17.09;52.82;101794.50;5056005;28;45483;-52
2022/04/15 02:56:32;;;;;;;;;8.00;8.00;;;;;17.08;53.40;101790.88;5037548;28;46001;-55
2022/04/15 02:58:57;;;;;;;;;8.75;8.75;;;;;17.07;53.45;101786.38;5070961;28;45788;-52
2022/04/15 03:01:23;;;;;;;;;7.25;7.25;;;;;16.65;53.91;101724.09;5055037;28;45304;-53
2022/04/15 03:03:48;;;;;;;;;3.25;2.75;;;;;16.85;54.23;101759.09;5054950;28;45366;-56
2022/04/15 03:06:14;;;;;;;;;7.00;7.00;;;;;17.03;54.61;101790.72;5053714;28;47372;-51
2022/04/15 03:08:40;;;;;;;;;7.00;5.60;;;;;16.85;54.64;101764.63;5055019;28;45295;-50
2022/04/15 03:11:06;;;;;;;;;7.00;6.25;;;;;17.01;54.84;101787.28;5055099;28;45745;-56
2022/04/15 03:13:31;;;;;;;;;9.00;9.00;;;;;16.94;54.71;101779.03;5070533;28;45489;-54
2022/04/15 03:15:57;;;;;;;;;6.25;6.25;;;;;16.91;54.83;101773.94;5054678;28;45697;-53
2022/04/15 03:18:25;;;;;;;;;9.00;7.75;;;;;16.94;54.90;101785.44;5054888;28;46025;-51
2022/04/15 03:20:51;;;;;;;;;11.00;8.80;;;;;16.68;55.29;101753.28;5054557;28;45433;-50
2022/04/15 03:23:19;;;;;;;;;8.00;8.00;;;;;16.86;55.29;101788.50;5055194;28;45331;-52
2022/04/15 03:25:46;;;;;;;;;7.80;7.20;;;;;16.77;55.59;101776.03;5054523;28;46903;-54
2022/04/15 03:28:13;;;;;;;;;9.00;9.00;;;;;16.83;55.75;101801.97;5054851;28;45346;-51
2022/04/15 03:30:38;;;;;;;;;7.00;7.00;;;;;16.46;55.73;101739.88;5054742;28;45311;-51
2022/04/15 03:33:04;;;;;;;;;8.00;7.00;;;;;16.70;55.67;101783.56;5055034;28;45675;-49
2022/04/15 03:35:30;;;;;;;;;6.25;6.25;;;;;16.66;55.71;101783.16;5054329;28;46440;-54
2022/04/15 03:37:55;;;;;;;;;9.50;8.25;;;;;16.70;56.25;101798.25;5068869;28;45831;-53
2022/04/15 03:40:21;;;;;;;;;8.25;6.50;;;;;16.67;56.06;101799.56;5054595;28;45418;-50
2022/04/15 03:42:47;;;;;;;;;10.25;8.50;;;;;16.66;56.15;101792.31;5056778;28;45519;-53
2022/04/15 03:45:14;;;;;;;;;6.20;5.80;;;;;16.60;56.29;101787.69;5058003;28;45318;-56
2022/04/15 03:47:41;;;;;;;;;11.80;9.40;;;;;16.60;56.26;101797.94;5040650;28;45531;-55
2022/04/15 03:50:08;;;;;;;;;7.00;7.00;;;;;16.56;56.28;101796.69;5055990;28;45377;-52
2022/04/15 03:52:38;;;;;;;;;8.40;8.20;;;;;16.56;56.40;101800.31;5056673;28;45319;-52
2022/04/15 03:55:05;;;;;;;;;10.80;8.60;;;;;16.55;56.45;101795.84;5058012;28;46701;-49
2022/04/15 03:57:30;;;;;;;;;7.20;7.00;;;;;16.50;56.69;101802.03;5073446;28;45353;-53
2022/04/15 03:59:56;;;;;;;;;10.75;10.75;;;;;16.49;56.67;101805.91;5037763;28;45482;-52
2022/04/15 04:02:21;;;;;;;;;10.25;8.00;;;;;16.48;56.73;101806.13;5037870;28;45461;-51
2022/04/15 04:04:47;;;;;;;;;9.00;9.00;;;;;16.43;56.57;101801.25;5035772;28;48142;-50
2022/04/15 04:07:15;;;;;;;;;9.00;8.00;;;;;16.37;56.93;101797.47;5037855;28;45241;-51
2022/04/15 04:09:41;;;;;;;;;10.00;9.80;;;;;16.36;56.79;101803.22;5037389;28;45359;-49
2022/04/15 04:12:07;;;;;;;;;10.00;10.00;;;;;16.35;56.84;101804.31;5038343;28;45875;-50
2022/04/15 04:14:32;;;;;;;;;11.00;9.80;;;;;16.35;57.08;101805.19;5056944;28;46493;-52
2022/04/15 04:16:58;;;;;;;;;10.50;10.50;;;;;16.30;56.91;101802.22;5057462;28;45317;-53
2022/04/15 04:19:24;;;;;;;;;11.40;9.60;;;;;16.36;57.32;101811.53;5057765;28;45408;-51
2022/04/15 04:21:50;;;;;;;;;10.50;10.50;;;;;16.15;57.03;101782.28;5057645;28;45336;-49
2022/04/15 04:24:15;;;;;;;;;9.25;7.75;;;;;16.28;57.19;101812.69;5057767;28;45992;-50
2022/04/15 04:26:41;;;;;;;;;13.00;12.00;;;;;16.29;57.40;101814.38;5057217;28;45362;-57
2022/04/15 04:29:06;;;;;;;;;11.75;11.50;;;;;16.19;57.11;101806.56;5057676;28;45354;-54
2022/04/15 04:31:32;;;;;;;;;11.00;11.00;;;;;16.23;57.16;101812.50;5039758;28;45382;-52
2022/04/15 04:33:57;;;;;;;;;11.50;10.25;;;;;15.94;57.18;101771.38;5057236;28;45485;-54
2022/04/15 04:36:23;;;;;;;;;10.25;10.25;;;;;16.24;57.40;101817.78;5057302;28;45535;-53
2022/04/15 04:38:48;;;;;;;;;10.75;10.50;;;;;16.27;57.36;101824.81;5057274;28;45389;-53
2022/04/15 04:41:14;;;;;;;;;11.25;10.00;;;;;16.26;57.20;101832.28;5057500;28;45363;-53
2022/04/15 04:43:40;;;;;;;;;11.50;8.50;;;;;16.27;57.38;101824.81;5055803;28;48041;-52
2022/04/15 04:46:05;;;;;;;;;10.75;10.50;;;;;16.27;57.49;101827.59;5057016;28;45306;-50
2022/04/15 04:48:32;;;;;;;;;6.25;6.00;;;;;16.21;57.54;101821.03;5057318;28;45377;-50
2022/04/15 04:50:57;;;;;;;;;16.40;12.80;;;;;16.26;57.48;101831.44;5038484;28;45423;-52
2022/04/15 04:53:23;;;;;;;;;12.00;12.00;;;;;15.79;57.33;101755.03;5017394;28;45902;-51
2022/04/15 04:55:48;;;;;;;;;11.75;10.00;;;;;16.18;57.67;101826.16;5055721;28;45348;-52
2022/04/15 04:58:14;;;;;;;;;10.25;10.25;;;;;16.17;57.39;101833.63;5055859;28;45405;-54
2022/04/15 05:00:39;;;;;;;;;9.50;9.50;;;;;16.17;57.76;101838.31;5072759;28;45333;-51
2022/04/15 05:03:05;;;;;;;;;9.25;9.25;;;;;16.13;57.70;101832.38;5057108;28;45960;-51
2022/04/15 05:05:31;;;;;;;;;11.25;10.00;;;;;16.16;57.67;101845.78;5056892;28;45696;-52
2022/04/15 05:07:56;;;;;;;;;11.75;11.00;;;;;16.16;57.76;101845.78;5073006;28;45372;-53
2022/04/15 05:10:22;;;;;;;;;12.00;11.00;;;;;15.96;57.68;101824.59;5057707;28;45244;-50
2022/04/15 05:12:48;;;;;;;;;11.00;9.75;;;;;16.14;57.41;101853.47;5057207;28;45611;-51
2022/04/15 05:15:13;;;;;;;;;10.50;9.75;;;;;16.13;57.60;101854.53;5056709;28;45552;-54
2022/04/15 05:17:39;;;;;;;;;12.50;10.75;;;;;16.07;57.42;101850.72;5057240;28;45431;-53
2022/04/15 05:20:06;;;;;;;;;7.50;7.50;;;;;16.09;58.00;101851.38;5072976;28;45432;-51
2022/04/15 05:22:31;;;;;;;;;11.40;10.00;;;;;16.13;57.77;101868.38;5056521;28;46089;-50
2022/04/15 05:24:57;;;;;;;;;14.25;11.75;;;;;16.06;57.72;101857.34;5056894;28;45453;-54
2022/04/15 05:27:22;;;;;;;;;15.00;11.50;;;;;16.05;57.58;101849.25;5056539;28;45437;-52
2022/04/15 05:29:48;;;;;;;;;9.25;9.00;;;;;16.13;57.50;101866.44;5055524;28;45619;-51
2022/04/15 05:32:13;;;;;;;;;11.00;9.50;;;;;16.17;57.59;101871.56;5056366;28;45329;-51
2022/04/15 05:34:39;;;;;;;;;13.00;12.25;;;;;16.18;57.45;101870.47;5056755;28;45322;-49
2022/04/15 05:37:04;;;;;;;;;10.50;9.75;;;;;16.17;57.52;101866.03;5056733;28;45383;-52
2022/04/15 05:39:30;;;;;;;;;11.00;11.00;;;;;16.11;57.23;101860.28;5055106;28;45622;-52
2022/04/15 05:41:56;;;;;;;;;10.75;10.75;;;;;16.20;57.25;101877.50;5056578;28;46182;-53
2022/04/15 05:44:21;;;;;;;;;18.00;14.25;;;;;16.19;56.64;101869.41;5071765;28;45350;-50
2022/04/15 05:46:47;;;;;;;;;10.00;10.00;;;;;16.21;57.09;101881.09;5056102;28;45296;-51
2022/04/15 05:49:14;;;;;;;;;14.20;10.40;;;;;16.14;56.95;101881.16;5038506;28;45715;-52
2022/04/15 05:51:42;;;;;;;;;12.80;12.00;;;;;15.75;57.38;101838.72;5050885;28;46990;-49
2022/04/15 05:54:08;;;;;;;;;12.00;12.00;;;;;16.03;57.39;101885.47;5052095;28;45539;-51
2022/04/15 05:56:33;;;;;;;;;9.50;8.00;;;;;15.90;56.96;101852.28;5036143;28;45668;-53
2022/04/15 05:58:58;;;;;;;;;9.25;9.25;;;;;16.01;56.93;101870.16;5037877;28;45351;-52
2022/04/15 06:01:24;;;;;;;;;9.50;9.00;;;;;16.08;56.82;101882.03;5071644;28;46292;-50
2022/04/15 06:03:49;;;;;;;;;10.75;10.75;;;;;16.10;56.76;101886.28;5036977;28;45374;-51
2022/04/15 06:06:15;;;;;;;;;9.75;9.00;;;;;16.06;57.34;101873.13;5056074;28;45367;-52
2022/04/15 06:08:41;;;;;;;;;13.25;12.50;;;;;16.16;56.88;101898.38;5056283;28;45588;-50
2022/04/15 06:11:06;;;;;;;;;9.00;9.00;;;;;16.13;56.79;101891.38;5055950;28;46483;-53
2022/04/15 06:13:32;;;;;;;;;10.00;9.00;;;;;16.01;56.59;101867.38;5056043;28;45306;-53
2022/04/15 06:15:58;;;;;;;;;10.50;9.50;;;;;16.16;56.91;101900.34;5056131;28;45318;-50
2022/04/15 06:18:25;;;;;;;;;12.00;12.00;;;;;16.14;56.80;101897.78;5055910;28;45404;-51
2022/04/15 06:20:50;;;;;;;;;10.20;10.20;;;;;16.17;56.92;101902.84;5071609;28;46124;-55
2022/04/15 06:23:16;;;;;;;;;12.00;11.25;;;;;16.24;56.55;101913.91;5055613;28;45384;-50
2022/04/15 06:25:42;;;;;;;;;12.50;9.50;;;;;15.93;56.14;101857.41;5055974;28;45450;-50
2022/04/15 06:28:08;;;;;;;;;11.75;10.00;;;;;16.23;56.38;101907.50;5055863;28;45350;-55
2022/04/15 06:30:34;;;;;;;;;11.25;11.25;;;;;16.12;56.56;101898.00;5055694;28;46726;-50
2022/04/15 06:32:59;;;;;;;;;11.75;11.00;;;;;16.20;56.70;101915.41;5055427;28;45304;-51
2022/04/15 06:35:25;;;;;;;;;15.25;14.25;;;;;16.23;56.35;101915.81;5056033;28;45243;-56
2022/04/15 06:37:51;;;;;;;;;11.00;10.00;;;;;15.93;56.45;101868.47;5056237;28;45647;-49
2022/04/15 06:40:17;;;;;;;;;13.60;13.60;;;;;16.27;56.39;101924.53;5055537;28;46673;-49
2022/04/15 06:42:42;;;;;;;;;16.00;15.75;;;;;16.06;56.64;101886.97;5055530;28;45310;-54
2022/04/15 06:45:09;;;;;;;;;18.25;16.75;;;;;16.25;56.84;101916.47;5055816;28;45236;-50
2022/04/15 06:47:34;;;;;;;;;13.00;12.40;;;;;16.29;56.44;101925.19;5055651;28;45336;-52
2022/04/15 06:50:00;;;;;;;;;19.75;17.25;;;;;16.25;56.73;101918.38;5055490;28;46294;-49
2022/04/15 06:52:25;;;;;;;;;19.00;17.00;;;;;15.87;56.42;101848.03;5070871;28;45845;-49
2022/04/15 06:54:51;;;;;;;;;15.50;15.50;;;;;16.10;56.65;101885.44;5055423;28;45487;-50
2022/04/15 06:57:16;;;;;;;;;19.50;17.00;;;;;16.35;56.52;101924.28;5055711;28;45518;-49
2022/04/15 06:59:42;;;;;;;;;22.25;17.50;;;;;16.31;56.80;101920.25;5014861;28;46953;-49
2022/04/15 07:02:07;;;;;;;;;23.25;20.00;;;;;16.35;56.41;101920.66;5013519;28;45603;-52
2022/04/15 07:04:34;;;;;;;;;20.50;20.25;;;;;16.37;56.43;101932.38;5011249;28;45406;-53
2022/04/15 07:07:00;;;;;;;;;18.60;17.20;;;;;15.62;56.66;101803.69;5013354;28;45347;-51
2022/04/15 07:09:25;;;;;;;;;20.75;18.75;;;;;16.34;56.85;101922.56;5013251;28;46079;-50
2022/04/15 07:11:51;;;;;;;;;19.00;16.75;;;;;16.36;56.87;101928.75;5014918;28;45459;-52
2022/04/15 07:14:17;;;;;;;;;17.25;15.50;;;;;16.38;56.52;101929.38;5015658;28;45277;-53
2022/04/15 07:16:42;;;;;;;;;20.00;18.20;;;;;16.40;56.67;101935.53;5018889;28;45485;-48
2022/04/15 07:19:08;;;;;;;;;19.25;16.75;;;;;16.40;56.63;101935.53;5016973;28;46329;-49
2022/04/15 07:21:34;;;;;;;;;17.75;14.50;;;;;16.46;56.78;101932.97;5018555;28;45297;-53
2022/04/15 07:24:00;;;;;;;;;21.00;19.60;;;;;16.43;56.66;101933.41;5018185;28;45483;-48
2022/04/15 07:26:25;;;;;;;;;17.00;15.75;;;;;16.43;56.31;101937.03;5018613;28;45497;-48
2022/04/15 07:28:51;;;;;;;;;17.25;14.75;;;;;16.48;56.14;101937.22;5015612;28;45762;-57
2022/04/15 07:31:16;;;;;;;;;17.25;16.00;;;;;16.48;56.22;101939.13;5017508;28;45445;-49
2022/04/15 07:33:42;;;;;;;;;17.75;16.00;;;;;16.55;56.38;101942.72;5000310;28;45586;-50
2022/04/15 07:38:51;;;;;;;;;20.80;17.80;;;;;16.58;55.51;101942.25;5016748;28;45451;-49
2022/04/15 07:41:17;;;;;;;;;16.25;14.50;;;;;16.48;56.14;101942.75;5024712;28;45454;-53
2022/04/15 07:43:42;;;;;;;;;18.75;16.00;;;;;16.51;55.69;101942.31;5038104;28;45406;-51
2022/04/15 07:46:08;;;;;;;;;24.75;19.00;;;;;16.52;55.39;101930.16;5037979;28;45326;-52
2022/04/15 07:48:33;;;;;;;;;20.50;18.00;;;;;16.53;55.10;101934.63;5070034;28;47292;-52
2022/04/15 07:50:59;;;;;;;;;19.75;18.25;;;;;16.52;55.55;101937.59;5036318;28;45428;-51
2022/04/15 07:53:24;;;;;;;;;19.50;18.75;;;;;16.58;55.46;101936.72;5036071;28;45346;-50
2022/04/15 07:55:50;;;;;;;;;22.25;20.75;;;;;16.55;54.81;101917.78;5070436;28;45630;-54
2022/04/15 07:58:15;;;;;;;;;17.75;15.75;;;;;16.62;55.20;101934.34;5037690;28;46371;-49
2022/04/15 08:00:42;;;;;;;;;19.00;17.00;;;;;16.76;54.71;101943.44;5013241;28;45496;-53
2022/04/15 08:03:08;;;;;;;;;17.20;14.40;;;;;16.79;54.76;101948.50;5018298;28;45358;-54
2022/04/15 08:05:34;;;;;;;;;19.50;18.25;;;;;16.85;54.46;101941.25;5036699;28;45571;-52
2022/04/15 08:07:59;;;;;;;;;18.00;15.00;;;;;16.86;54.20;101941.00;5037470;28;45525;-48
2022/04/15 08:10:25;;;;;;;;;19.00;17.25;;;;;16.93;54.69;101943.72;5036296;28;45501;-55
2022/04/15 08:12:50;;;;;;;;;16.75;16.75;;;;;16.79;53.70;101915.25;5035508;28;45536;-50
2022/04/15 08:15:16;;;;;;;;;11.75;11.50;;;;;16.99;53.28;101948.38;5034016;28;45710;-52
2022/04/15 08:17:41;;;;;;;;;14.25;9.75;;;;;17.04;53.49;101956.03;5035699;28;45417;-50
2022/04/15 08:20:07;;;;;;;;;12.50;10.75;;;;;16.87;52.50;101912.19;5035768;28;45295;-50
2022/04/15 08:22:35;;;;;;;;;12.00;10.80;;;;;17.05;53.23;101944.72;5035261;28;45416;-51
2022/04/15 08:25:01;;;;;;;;;13.20;10.20;;;;;17.16;52.45;101948.69;5036978;28;45430;-50
2022/04/15 08:27:27;;;;;;;;;12.60;10.00;;;;;17.16;52.06;101945.91;5017496;28;45380;-49
2022/04/15 08:29:53;;;;;;;;;13.00;10.00;;;;;17.12;51.90;101947.44;5034846;28;45423;-47
2022/04/15 08:32:19;;;;;;;;;12.00;10.75;;;;;16.93;51.42;101902.13;5069047;28;45800;-49
2022/04/15 08:34:45;;;;;;;;;12.80;11.80;;;;;17.22;51.61;101946.91;5035590;28;45582;-48
2022/04/15 08:37:12;;;;;;;;;9.25;8.00;;;;;17.22;52.03;101937.75;5068288;28;46966;-54
2022/04/15 08:39:38;;;;;;;;;10.80;10.80;;;;;17.23;51.56;101931.13;5035246;28;45570;-51
2022/04/15 08:42:04;;;;;;;;;10.25;9.50;;;;;17.32;51.42;101957.50;5033752;28;45407;-48
2022/04/15 08:44:30;;;;;;;;;8.20;8.20;;;;;17.16;51.69;101918.16;5034090;28;45465;-50
2022/04/15 08:46:57;;;;;;;;;10.40;10.40;;;;;17.38;51.33;101951.03;5034274;28;45706;-50
2022/04/15 08:49:23;;;;;;;;;13.20;13.20;;;;;17.45;51.18;101946.25;5036927;28;45380;-52
2022/04/15 08:51:51;;;;;;;;;11.20;9.60;;;;;17.54;51.24;101957.94;5052423;28;45472;-53
2022/04/15 08:54:18;;;;;;;;;12.40;11.00;;;;;17.50;50.79;101947.50;5035928;28;45421;-54
2022/04/15 08:56:43;;;;;;;;;15.60;11.80;;;;;17.56;50.98;101950.19;5018951;28;45379;-53
2022/04/15 08:59:09;;;;;;;;;13.75;12.25;;;;;17.67;51.46;101953.31;5036762;28;45314;-49
2022/04/15 09:01:35;;;;;;;;;13.00;12.75;;;;;17.61;50.65;101939.25;5056992;28;45330;-55
2022/04/15 09:04:00;;;;;;;;;16.25;14.00;;;;;17.77;50.47;101945.28;5072778;28;45380;-49
2022/04/15 09:06:32;;;;;;;;;14.00;8.75;;;;;17.84;49.97;101956.31;5047383;28;47002;-50
2022/04/15 09:09:01;;;;;;;;;9.00;8.80;;;;;17.83;50.17;101962.97;5056503;28;45409;-54
2022/04/15 09:11:34;;;;;;;;;3.40;3.40;;;;;17.79;49.70;101953.38;5055052;28;45331;-53
2022/04/15 09:14:02;;;;;;;;;3.60;3.60;;;;;17.94;49.85;101956.63;5039493;28;45213;-52
2022/04/15 09:16:29;;;;;;;;;6.60;6.00;;;;;18.00;49.87;101968.75;5056499;28;46601;-56
2022/04/15 09:18:55;;;;;;;;;9.00;7.20;;;;;18.02;49.51;101964.66;5038028;28;45724;-51
2022/04/15 09:21:24;;;;;;;;;5.25;5.00;;;;;18.08;49.63;101970.41;5022142;28;45479;-50
2022/04/15 09:23:54;;;;;;;;;4.60;4.60;;;;;18.09;48.67;101970.13;5057050;28;45306;-49
2022/04/15 09:26:20;;;;;;;;;3.00;3.00;;;;;17.97;49.12;101969.19;5038512;28;45751;-51
2022/04/15 09:28:47;;;;;;;;;6.00;4.40;;;;;17.51;49.47;101879.81;5056596;28;45548;-54
2022/04/15 09:31:13;;;;;;;;;4.00;4.00;;;;;18.15;49.12;101972.00;5038803;28;45421;-50
2022/04/15 09:33:55;;;;;;;;;2.75;2.75;;;;;18.19;49.03;101964.03;5056760;28;45232;-54
2022/04/15 09:36:31;;;;;;;;;3.40;3.40;;;;;18.19;48.81;101972.38;5056351;28;45661;-54
2022/04/15 09:38:58;;;;;;;;;6.00;4.00;;;;;18.22;48.83;101969.13;5054615;28;45793;-51
2022/04/15 09:41:24;;;;;;;;;5.80;5.80;;;;;18.19;49.09;101954.88;5056747;28;45347;-51
2022/04/15 09:43:53;;;;;;;;;7.20;5.80;;;;;18.34;48.42;101969.19;5038839;28;45310;-53
2022/04/15 09:46:19;;;;;;;;;7.00;3.40;;;;;18.33;49.05;101955.53;5038327;28;47848;-50
2022/04/15 09:49:05;;;;;;;;;7.75;5.00;;;;;18.44;48.49;101968.63;5056046;28;45451;-50
2022/04/15 09:51:34;;;;;;;;;3.40;3.20;;;;;18.52;48.88;101965.50;5056262;28;45549;-52
2022/04/15 09:54:01;;;;;;;;;5.20;5.00;;;;;18.51;48.30;101949.91;5056550;28;45631;-52
2022/04/15 09:56:27;;;;;;;;;7.60;6.20;;;;;18.64;48.62;101959.16;5055876;28;45169;-50
2022/04/15 09:58:54;;;;;;;;;4.50;4.00;;;;;18.58;47.59;101933.16;5038026;28;45470;-49
2022/04/15 10:01:21;;;;;;;;;5.00;3.60;;;;;18.77;48.21;101961.72;5056099;28;45402;-52
2022/04/15 10:03:48;;;;;;;;;6.60;6.20;;;;;18.81;48.07;101962.09;5021490;28;45474;-53
2022/04/15 10:06:14;;;;;;;;;6.20;4.20;;;;;18.86;48.10;101958.59;5054827;28;45290;-53
2022/04/15 10:08:39;;;;;;;;;6.75;6.75;;;;;18.85;47.76;101948.56;5038403;28;45248;-55
2022/04/15 10:11:05;;;;;;;;;5.75;5.75;;;;;18.97;47.87;101955.00;5037995;28;45374;-54
2022/04/15 10:13:31;;;;;;;;;6.75;5.50;;;;;19.05;47.69;101957.44;5054096;28;45585;-50
2022/04/15 10:15:56;;;;;;;;;6.50;5.50;;;;;18.92;47.69;101924.25;5055567;28;45809;-53
2022/04/15 10:18:22;;;;;;;;;5.50;5.00;;;;;18.85;47.41;101904.06;5056245;28;45446;-55
2022/04/15 10:20:48;;;;;;;;;8.75;5.25;;;;;19.19;47.29;101958.09;5071872;28;45409;-52
2022/04/15 10:23:13;;;;;;;;;5.00;5.00;;;;;19.20;47.49;101939.44;5072034;28;45441;-55
2022/04/15 10:25:42;;;;;;;;;7.75;6.75;;;;;19.14;46.81;101919.00;5071428;28;47128;-54
2022/04/15 10:28:11;;;;;;;;;6.00;6.00;;;;;19.40;46.68;101941.88;5037617;28;45521;-54
2022/04/15 10:30:38;;;;;;;;;9.40;8.60;;;;;19.47;46.66;101952.88;5067124;27;45310;-50
2022/04/15 10:33:03;;;;;;;;;6.60;5.80;;;;;19.32;46.00;101926.38;5036451;28;45415;-55
2022/04/15 10:35:30;;;;;;;;;7.75;7.75;;;;;19.45;45.87;101936.44;5054614;28;46433;-54
2022/04/15 10:38:02;;;;;;;;;5.40;5.40;;;;;19.53;46.16;101937.16;5052932;28;45430;-53
2022/04/15 10:40:32;;;;;;;;;6.00;6.00;;;;;19.54;45.89;101936.91;5070554;28;45786;-56
2022/04/15 10:43:18;;;;;;;;;3.60;3.60;;;;;19.58;45.74;101940.06;5055754;28;45571;-51
2022/04/15 10:45:43;;;;;;;;;5.80;5.80;;;;;19.56;45.17;101934.72;5054463;28;47578;-55
2022/04/15 10:48:09;;;;;;;;;5.50;5.50;;;;;19.61;45.55;101932.06;5043897;28;46158;-53
2022/04/15 10:50:35;;;;;;;;;6.00;6.00;;;;;19.68;45.51;101929.13;5041871;28;45940;-55
2022/04/15 10:53:19;;;;;;;;;5.60;4.20;;;;;19.59;45.38;101884.09;5037624;28;45337;-54
2022/04/15 10:55:49;;;;;;;;;6.80;5.40;;;;;19.89;44.62;101924.00;5055019;28;45354;-56
2022/04/15 10:58:16;;;;;;;;;4.80;4.80;;;;;20.04;45.22;101929.94;5055390;28;45339;-56
2022/04/15 11:03:30;;;;;;;;;5.40;5.40;;;;;20.38;43.64;101928.34;5035755;28;45356;-56
2022/04/15 11:05:57;;;;;;;;;5.80;5.80;;;;;20.56;43.65;101928.09;5035043;28;45369;-54
2022/04/15 11:08:24;;;;;;;;;5.00;5.00;;;;;20.75;42.84;101919.50;5034107;28;45374;-58
2022/04/15 11:10:49;;;;;;;;;4.20;4.00;;;;;20.79;41.77;101919.84;5035667;28;45435;-52
2022/04/15 11:13:24;;;;;;;;;3.50;3.00;;;;;20.88;42.48;101912.81;5035501;28;45596;-55
2022/04/15 11:15:54;;;;;;;;;5.80;5.80;;;;;21.06;42.73;101910.84;5035239;28;45617;-51
2022/04/15 11:18:20;;;;;;;;;3.80;3.40;;;;;20.98;41.74;101887.00;5034072;28;45250;-54
2022/04/15 11:20:45;;;;;;;;;2.00;2.00;;;;;21.07;40.74;101904.19;5034942;28;45263;-50